Time;durP1;ratioP1;P1;durP2;ratioP2;P2;SDS_P1;SDS_P2;PMS_P1;PMS_P2;Temp;Humidity;BMP_temperature;BMP_pressure;BME280_temperature;BME280_humidity;BME280_pressure;Samples;Min_cycle;Max_cycle;Signal;HPM_P1;HPM_P2
2022/10/16 00:00:36;;;;;;;4.20;0.98;;;12.10;99.90;;;;;;5112604;28;20407;-78
2022/10/16 00:03:03;;;;;;;6.17;0.90;;;12.20;99.90;;;;;;5111468;28;20404;-79
2022/10/16 00:05:29;;;;;;;6.80;1.00;;;12.10;99.90;;;;;;5111606;28;20778;-79
2022/10/16 00:07:54;;;;;;;6.70;1.30;;;12.10;99.90;;;;;;5112420;28;20403;-79
2022/10/16 00:10:20;;;;;;;5.65;1.10;;;12.20;99.90;;;;;;5111040;28;21373;-79
2022/10/16 00:12:46;;;;;;;8.73;1.70;;;12.10;99.90;;;;;;5112151;28;20429;-78
2022/10/16 00:15:12;;;;;;;7.17;1.30;;;12.10;99.90;;;;;;5111916;28;20477;-78
2022/10/16 00:17:38;;;;;;;6.03;1.05;;;12.10;99.90;;;;;;5110914;28;20408;-78
2022/10/16 00:20:04;;;;;;;6.55;1.10;;;12.10;99.90;;;;;;5110216;28;20404;-78
2022/10/16 00:22:30;;;;;;;4.50;1.23;;;12.10;99.90;;;;;;5110853;28;20435;-78
2022/10/16 00:24:55;;;;;;;7.03;1.73;;;12.10;99.90;;;;;;5110467;28;20869;-79
2022/10/16 00:27:21;;;;;;;6.53;1.25;;;12.10;99.90;;;;;;5110562;28;20755;-79
2022/10/16 00:29:51;;;;;;;9.13;1.50;;;12.10;99.90;;;;;;5110008;28;20486;-78
2022/10/16 00:32:18;;;;;;;6.00;1.13;;;12.10;99.90;;;;;;5110270;28;20415;-79
2022/10/16 00:34:43;;;;;;;5.72;1.10;;;12.10;99.90;;;;;;5080631;28;20500;-78
2022/10/16 00:37:09;;;;;;;7.50;1.42;;;12.10;99.90;;;;;;5093344;28;20984;-79
2022/10/16 00:39:35;;;;;;;5.40;1.37;;;12.10;99.90;;;;;;5109942;28;20405;-79
2022/10/16 00:42:01;;;;;;;7.30;1.40;;;12.00;99.90;;;;;;5112301;28;20400;-78
2022/10/16 00:44:47;;;;;;;6.93;1.43;;;12.10;99.90;;;;;;5110310;28;20931;-78
2022/10/16 00:47:27;;;;;;;6.93;1.27;;;12.10;99.90;;;;;;5093098;28;20549;-78
2022/10/16 00:50:09;;;;;;;4.47;1.17;;;12.10;99.90;;;;;;5109998;28;20404;-78
2022/10/16 00:52:39;;;;;;;5.83;1.30;;;12.10;99.90;;;;;;5097045;28;20423;-78
2022/10/16 00:55:06;;;;;;;5.72;1.13;;;12.10;99.90;;;;;;5109926;28;20428;-78
2022/10/16 00:57:32;;;;;;;6.55;1.08;;;12.10;99.90;;;;;;5110408;28;20431;-78
2022/10/16 00:59:58;;;;;;;6.30;1.30;;;12.10;99.90;;;;;;5111362;28;20412;-78
2022/10/16 01:02:24;;;;;;;7.10;1.40;;;12.10;99.90;;;;;;5111264;28;21020;-77
2022/10/16 01:04:52;;;;;;;6.15;1.35;;;12.10;99.90;;;;;;5110976;28;20495;-78
2022/10/16 01:07:35;;;;;;;7.82;1.60;;;12.10;99.90;;;;;;5109987;28;20834;-78
2022/10/16 01:10:26;;;;;;;5.97;1.25;;;12.10;99.90;;;;;;5109731;28;20412;-78
2022/10/16 01:13:00;;;;;;;4.90;1.08;;;12.00;99.90;;;;;;5093216;28;20504;-79
2022/10/16 01:15:51;;;;;;;7.22;1.33;;;12.00;99.90;;;;;;5109378;28;20524;-78
2022/10/16 01:18:41;;;;;;;4.93;1.00;;;12.00;99.90;;;;;;5110426;28;20412;-78
2022/10/16 01:21:16;;;;;;;5.78;1.10;;;12.00;99.90;;;;;;5110126;28;21750;-78
2022/10/16 01:24:00;;;;;;;6.35;1.27;;;12.00;99.90;;;;;;5109390;28;20468;-78
2022/10/16 01:26:44;;;;;;;7.68;1.42;;;12.00;99.90;;;;;;5108454;28;20508;-78
2022/10/16 01:29:30;;;;;;;8.30;1.45;;;12.00;99.90;;;;;;5109329;28;20936;-78
2022/10/16 01:32:01;;;;;;;5.13;1.35;;;11.90;99.90;;;;;;5110871;28;20408;-78
2022/10/16 01:34:38;;;;;;;7.00;1.30;;;11.90;99.90;;;;;;5109143;28;20496;-78
2022/10/16 01:37:12;;;;;;;7.80;1.70;;;11.90;99.90;;;;;;5109878;28;20400;-79
2022/10/16 01:39:41;;;;;;;5.20;1.20;;;11.80;99.90;;;;;;5110903;28;20409;-79
2022/10/16 01:42:12;;;;;;;4.93;1.10;;;11.80;99.90;;;;;;5110216;28;20404;-78
2022/10/16 01:44:40;;;;;;;6.13;1.35;;;11.80;99.90;;;;;;5110444;28;20419;-78
2022/10/16 01:47:09;;;;;;;6.22;1.90;;;11.80;99.90;;;;;;5110001;28;20408;-79
2022/10/16 01:49:37;;;;;;;8.02;1.50;;;11.80;99.90;;;;;;5110226;28;20886;-78
2022/10/16 01:52:09;;;;;;;5.63;1.35;;;11.80;99.90;;;;;;5110309;28;20404;-78
2022/10/16 01:54:36;;;;;;;5.85;1.20;;;11.80;99.90;;;;;;5108679;28;20408;-78
2022/10/16 01:57:05;;;;;;;4.55;1.20;;;11.70;99.90;;;;;;5108862;28;20443;-78
2022/10/16 01:59:33;;;;;;;6.78;1.35;;;11.70;99.90;;;;;;5097380;28;20406;-78
2022/10/16 02:02:07;;;;;;;4.87;1.17;;;11.70;99.90;;;;;;5107592;28;20416;-79
2022/10/16 02:04:37;;;;;;;4.68;1.30;;;11.70;99.90;;;;;;5108329;28;20423;-78
2022/10/16 02:07:03;;;;;;;4.22;1.27;;;11.70;99.90;;;;;;5108558;28;20793;-78
2022/10/16 02:09:32;;;;;;;5.82;1.13;;;11.70;99.90;;;;;;5108784;28;20420;-79
2022/10/16 02:12:02;;;;;;;5.95;1.10;;;11.70;99.90;;;;;;5096121;28;20407;-78
2022/10/16 02:14:28;;;;;;;5.35;1.10;;;11.70;99.90;;;;;;5108382;28;20400;-78
2022/10/16 02:16:54;;;;;;;5.07;1.20;;;11.70;99.90;;;;;;5108639;28;20436;-78
2022/10/16 02:19:21;;;;;;;5.30;1.33;;;11.80;99.90;;;;;;5106949;28;20412;-79
2022/10/16 02:22:04;;;;;;;4.72;1.00;;;11.80;99.90;;;;;;5102841;28;20956;-78
2022/10/16 02:24:33;;;;;;;5.55;1.00;;;11.80;99.90;;;;;;5108866;28;20401;-78
2022/10/16 02:27:15;;;;;;;5.30;1.27;;;11.80;99.90;;;;;;5109220;28;20495;-78
2022/10/16 02:29:49;;;;;;;8.17;1.30;;;11.90;99.90;;;;;;5109560;28;20433;-78
2022/10/16 02:32:19;;;;;;;5.25;1.20;;;11.90;99.90;;;;;;5104255;28;20506;-78
2022/10/16 02:34:48;;;;;;;5.65;1.30;;;11.90;99.90;;;;;;5098589;28;20423;-79
2022/10/16 02:37:14;;;;;;;4.70;1.00;;;11.90;99.90;;;;;;5109317;28;20439;-78
2022/10/16 02:39:41;;;;;;;5.15;1.23;;;12.00;99.90;;;;;;5108074;28;20901;-78
2022/10/16 02:42:11;;;;;;;4.97;1.02;;;12.00;99.90;;;;;;5107909;28;20408;-78
2022/10/16 02:44:37;;;;;;;6.00;1.23;;;12.00;99.90;;;;;;5096673;28;20419;-78
2022/10/16 02:47:02;;;;;;;4.95;1.10;;;12.00;99.90;;;;;;5108010;28;20404;-78
2022/10/16 02:49:28;;;;;;;5.23;1.20;;;12.00;99.90;;;;;;5108824;28;20412;-79
2022/10/16 02:51:53;;;;;;;5.47;1.20;;;12.10;99.90;;;;;;5109064;28;20739;-78
2022/10/16 02:54:19;;;;;;;5.47;1.40;;;12.00;99.90;;;;;;5108034;28;20400;-78
2022/10/16 02:56:45;;;;;;;4.40;1.10;;;12.10;99.90;;;;;;5107655;28;20515;-78
2022/10/16 02:59:10;;;;;;;5.30;1.17;;;12.10;99.90;;;;;;5107565;28;20404;-78
2022/10/16 03:01:36;;;;;;;7.60;1.70;;;12.10;99.90;;;;;;5107743;28;20411;-78
2022/10/16 03:04:02;;;;;;;3.67;1.20;;;12.20;99.90;;;;;;5106991;28;20404;-78
2022/10/16 03:06:27;;;;;;;5.37;1.20;;;12.10;99.90;;;;;;5107557;28;20420;-78
2022/10/16 03:08:53;;;;;;;6.57;1.40;;;12.10;99.90;;;;;;5108925;28;20774;-78
2022/10/16 03:11:18;;;;;;;4.77;1.20;;;12.20;99.90;;;;;;5107817;28;20396;-78
2022/10/16 03:13:44;;;;;;;6.20;1.30;;;12.20;99.90;;;;;;5090539;28;20932;-78
2022/10/16 03:16:10;;;;;;;6.55;1.33;;;12.20;99.90;;;;;;5107450;28;20440;-79
2022/10/16 03:18:35;;;;;;;6.57;1.17;;;12.20;99.90;;;;;;5107381;28;20519;-78
2022/10/16 03:21:01;;;;;;;4.85;1.40;;;12.20;99.90;;;;;;5107280;28;20408;-78
2022/10/16 03:23:26;;;;;;;6.57;1.20;;;12.20;99.90;;;;;;5108175;28;20491;-78
2022/10/16 03:25:52;;;;;;;4.43;1.15;;;12.20;99.90;;;;;;5108391;28;20408;-78
2022/10/16 03:28:18;;;;;;;6.38;1.10;;;12.20;99.90;;;;;;5108503;28;20397;-78
2022/10/16 03:30:43;;;;;;;6.20;1.50;;;12.20;99.90;;;;;;5107879;28;20419;-78
2022/10/16 03:33:09;;;;;;;7.80;1.20;;;12.20;99.90;;;;;;5089709;28;20512;-78
2022/10/16 03:35:35;;;;;;;5.10;1.27;;;12.20;99.90;;;;;;5106081;28;20508;-78
2022/10/16 03:38:00;;;;;;;4.60;1.27;;;12.20;99.90;;;;;;5108508;28;20805;-78
2022/10/16 03:40:26;;;;;;;4.87;1.10;;;12.10;99.90;;;;;;5108766;28;20413;-78
2022/10/16 03:42:51;;;;;;;4.38;1.10;;;12.10;99.90;;;;;;5108707;28;20449;-78
2022/10/16 03:45:17;;;;;;;5.20;1.40;;;12.10;99.90;;;;;;5107553;28;20396;-77
2022/10/16 03:47:43;;;;;;;5.13;1.13;;;12.10;99.90;;;;;;5107099;28;20430;-78
2022/10/16 03:50:08;;;;;;;4.40;1.00;;;12.10;99.90;;;;;;5106830;28;20408;-79
2022/10/16 03:52:34;;;;;;;4.07;1.10;;;12.00;99.90;;;;;;5106998;28;20411;-78
2022/10/16 03:55:00;;;;;;;2.77;1.20;;;12.10;99.90;;;;;;5107128;28;20431;-78
2022/10/16 03:57:25;;;;;;;4.47;1.13;;;12.00;99.90;;;;;;5107058;28;20414;-78
2022/10/16 03:59:51;;;;;;;3.90;1.10;;;12.00;99.90;;;;;;5108309;28;20435;-78
2022/10/16 04:02:16;;;;;;;4.73;1.30;;;12.00;99.90;;;;;;5107188;28;20416;-78
2022/10/16 04:04:42;;;;;;;6.30;1.55;;;12.00;99.90;;;;;;5106812;28;20581;-78
2022/10/16 04:07:08;;;;;;;4.60;1.33;;;12.00;99.90;;;;;;5106592;28;20821;-78
2022/10/16 04:09:33;;;;;;;4.22;1.13;;;12.00;99.90;;;;;;5106871;28;20446;-78
2022/10/16 04:11:59;;;;;;;3.83;1.30;;;12.00;99.90;;;;;;5108380;28;20396;-78
2022/10/16 04:14:24;;;;;;;6.32;1.83;;;11.90;99.90;;;;;;5106881;28;20491;-78
2022/10/16 04:16:50;;;;;;;6.67;1.10;;;12.00;99.90;;;;;;5108082;28;20473;-78
2022/10/16 04:19:16;;;;;;;3.83;1.47;;;12.00;99.90;;;;;;5106457;28;20508;-78
2022/10/16 04:21:41;;;;;;;3.55;0.90;;;12.00;99.90;;;;;;5107920;28;20914;-78
2022/10/16 04:24:07;;;;;;;4.43;1.00;;;12.00;99.90;;;;;;5107516;28;20400;-78
2022/10/16 04:26:32;;;;;;;3.38;0.90;;;12.00;99.90;;;;;;5106558;28;20400;-78
2022/10/16 04:28:58;;;;;;;5.83;1.30;;;11.90;99.90;;;;;;5104918;28;20449;-78
2022/10/16 04:31:24;;;;;;;4.95;1.25;;;11.90;99.90;;;;;;5089525;28;20407;-78
2022/10/16 04:33:49;;;;;;;4.63;1.33;;;11.90;99.90;;;;;;5106473;28;20400;-78
2022/10/16 04:36:15;;;;;;;3.30;1.00;;;11.90;99.90;;;;;;5107133;28;20474;-78
2022/10/16 04:38:40;;;;;;;5.80;1.20;;;11.90;99.90;;;;;;5106462;28;20400;-78
2022/10/16 04:41:07;;;;;;;4.23;1.67;;;11.90;99.90;;;;;;5107898;28;20882;-78
2022/10/16 04:43:33;;;;;;;4.72;1.17;;;11.80;99.90;;;;;;5110190;28;20441;-78
2022/10/16 04:45:59;;;;;;;4.47;1.23;;;11.80;99.90;;;;;;5110251;28;20407;-78
2022/10/16 04:48:25;;;;;;;4.13;1.15;;;11.80;99.90;;;;;;5098630;28;20400;-78
2022/10/16 04:50:50;;;;;;;6.37;1.57;;;11.80;99.90;;;;;;5111317;28;20484;-78
2022/10/16 04:53:16;;;;;;;3.88;1.30;;;11.80;99.90;;;;;;5110190;28;20432;-78
2022/10/16 04:55:42;;;;;;;4.53;1.67;;;11.90;99.90;;;;;;5111746;28;20424;-78
2022/10/16 04:58:08;;;;;;;4.95;1.05;;;11.90;99.90;;;;;;5110041;28;20411;-78
2022/10/16 05:00:34;;;;;;;3.93;1.03;;;11.90;99.90;;;;;;5110117;28;20424;-78
2022/10/16 05:03:00;;;;;;;4.07;1.00;;;11.90;99.90;;;;;;5111185;28;20484;-78
2022/10/16 05:05:26;;;;;;;4.10;1.00;;;11.90;99.90;;;;;;5110929;27;20783;-78
2022/10/16 05:07:52;;;;;;;5.23;1.43;;;11.90;99.90;;;;;;5111247;28;21098;-78
2022/10/16 05:10:18;;;;;;;4.55;0.93;;;12.00;99.90;;;;;;5111316;28;21172;-78
2022/10/16 05:12:44;;;;;;;3.20;0.90;;;12.00;99.90;;;;;;5111169;28;20408;-78
2022/10/16 05:15:10;;;;;;;5.85;1.20;;;12.10;99.90;;;;;;5111237;28;20412;-78
2022/10/16 05:17:36;;;;;;;3.33;1.10;;;12.10;99.90;;;;;;5110241;27;20410;-77
2022/10/16 05:20:03;;;;;;;3.35;1.10;;;12.20;99.90;;;;;;5110793;28;20432;-78
2022/10/16 05:22:28;;;;;;;3.47;1.00;;;12.20;99.90;;;;;;5110920;28;20453;-78
2022/10/16 05:24:54;;;;;;;6.27;1.17;;;12.20;99.90;;;;;;5110980;28;20392;-78
2022/10/16 05:27:20;;;;;;;5.88;1.20;;;12.30;99.90;;;;;;5109784;28;20404;-78
2022/10/16 05:29:47;;;;;;;4.37;1.20;;;12.30;99.90;;;;;;5108834;28;20765;-78
2022/10/16 05:32:17;;;;;;;5.38;1.30;;;12.30;99.90;;;;;;5109798;28;20403;-78
2022/10/16 05:34:44;;;;;;;4.57;1.50;;;12.40;99.90;;;;;;5109324;28;20419;-78
2022/10/16 05:37:11;;;;;;;4.78;0.95;;;12.30;99.90;;;;;;5108900;28;20727;-78
2022/10/16 05:39:37;;;;;;;4.03;1.40;;;12.40;99.90;;;;;;5109302;28;21162;-78
2022/10/16 05:42:03;;;;;;;3.27;1.17;;;12.40;99.90;;;;;;5109343;28;20432;-78
2022/10/16 05:44:29;;;;;;;3.13;1.00;;;12.40;99.90;;;;;;5110373;28;20405;-78
2022/10/16 05:46:54;;;;;;;3.30;0.98;;;12.30;99.90;;;;;;5110326;28;20409;-78
2022/10/16 05:49:20;;;;;;;4.97;1.73;;;12.30;99.90;;;;;;5109991;28;20427;-78
2022/10/16 05:51:45;;;;;;;4.00;1.08;;;12.30;99.90;;;;;;5110211;28;20410;-78
2022/10/16 05:54:11;;;;;;;4.67;1.70;;;12.30;99.90;;;;;;5110707;28;20750;-78
2022/10/16 05:56:37;;;;;;;5.60;1.38;;;12.40;99.90;;;;;;5109971;28;20511;-78
2022/10/16 05:59:05;;;;;;;3.53;1.20;;;12.40;99.90;;;;;;5110002;28;20401;-78
2022/10/16 06:01:32;;;;;;;6.28;1.75;;;12.30;99.90;;;;;;5110460;28;20483;-78
2022/10/16 06:03:57;;;;;;;4.32;1.13;;;12.30;99.90;;;;;;5109903;28;20888;-78
2022/10/16 06:06:25;;;;;;;5.63;1.40;;;12.30;99.90;;;;;;5110157;28;20401;-78
2022/10/16 06:08:52;;;;;;;4.00;1.20;;;12.30;99.90;;;;;;5109936;28;20902;-78
2022/10/16 06:11:27;;;;;;;4.65;1.48;;;12.40;99.90;;;;;;5110062;28;20762;-78
2022/10/16 06:13:56;;;;;;;4.93;1.70;;;12.40;99.90;;;;;;5109484;28;20405;-78
2022/10/16 06:16:23;;;;;;;4.07;1.33;;;12.40;99.90;;;;;;5109973;28;20429;-77
2022/10/16 06:18:51;;;;;;;4.07;1.48;;;12.40;99.90;;;;;;5108688;28;20826;-78
2022/10/16 06:21:24;;;;;;;5.35;1.80;;;12.40;99.90;;;;;;5109563;28;20410;-78
2022/10/16 06:23:51;;;;;;;5.18;1.67;;;12.40;99.90;;;;;;5109206;28;20404;-78
2022/10/16 06:26:19;;;;;;;4.38;1.30;;;12.40;99.90;;;;;;5108493;28;20407;-78
2022/10/16 06:28:45;;;;;;;4.78;1.40;;;12.50;99.90;;;;;;5109652;28;20404;-78
2022/10/16 06:31:11;;;;;;;7.63;2.10;;;12.50;99.90;;;;;;5109507;28;20407;-78
2022/10/16 06:33:38;;;;;;;4.30;1.53;;;12.50;99.90;;;;;;5107980;28;20762;-78
2022/10/16 06:36:05;;;;;;;5.70;1.60;;;12.50;99.90;;;;;;5109038;28;20427;-78
2022/10/16 06:38:31;;;;;;;4.97;1.40;;;12.50;99.90;;;;;;5109159;28;20396;-78
2022/10/16 06:40:57;;;;;;;4.43;1.48;;;12.50;99.90;;;;;;5109416;28;20403;-78
2022/10/16 06:43:22;;;;;;;5.13;1.47;;;12.50;99.90;;;;;;5109008;28;20388;-78
2022/10/16 06:45:56;;;;;;;6.28;2.00;;;12.50;99.90;;;;;;5109564;28;20529;-78
2022/10/16 06:48:22;;;;;;;6.60;1.75;;;12.50;99.90;;;;;;5107468;28;20407;-78
2022/10/16 06:50:59;;;;;;;4.25;1.58;;;12.60;99.90;;;;;;5108905;28;20499;-78
2022/10/16 06:53:26;;;;;;;5.20;1.70;;;12.60;99.90;;;;;;5109130;28;20886;-78
2022/10/16 06:55:52;;;;;;;7.53;1.80;;;12.70;99.90;;;;;;5108953;28;20459;-78
2022/10/16 06:58:17;;;;;;;4.67;1.60;;;12.70;99.90;;;;;;5109032;28;20403;-78
2022/10/16 07:00:43;;;;;;;5.30;1.40;;;12.80;99.90;;;;;;5107721;28;20411;-78
2022/10/16 07:03:08;;;;;;;6.03;2.00;;;12.80;99.90;;;;;;5095701;28;20784;-78
2022/10/16 07:05:38;;;;;;;5.03;1.60;;;12.80;99.90;;;;;;5107644;28;20927;-78
2022/10/16 07:08:05;;;;;;;5.10;1.70;;;12.80;99.90;;;;;;5096035;28;20411;-79
2022/10/16 07:10:31;;;;;;;7.53;1.80;;;12.80;99.90;;;;;;5109021;28;20403;-78
2022/10/16 07:12:57;;;;;;;6.80;1.80;;;12.90;99.90;;;;;;5107672;28;20499;-78
2022/10/16 07:15:23;;;;;;;4.93;1.42;;;12.90;99.90;;;;;;5108386;27;20499;-79
2022/10/16 07:17:48;;;;;;;6.78;2.08;;;12.90;99.90;;;;;;5109401;28;20396;-79
2022/10/16 07:20:14;;;;;;;4.30;1.40;;;12.90;99.90;;;;;;5108441;28;20404;-78
2022/10/16 07:22:39;;;;;;;5.50;1.67;;;13.00;99.90;;;;;;5108597;28;20433;-78
2022/10/16 07:25:06;;;;;;;6.47;1.70;;;13.00;99.90;;;;;;5108506;28;20399;-78
2022/10/16 07:27:31;;;;;;;5.93;1.45;;;13.00;99.90;;;;;;5108830;28;20396;-78
2022/10/16 07:29:57;;;;;;;4.10;1.40;;;13.00;99.90;;;;;;5106798;28;20947;-79
2022/10/16 07:32:23;;;;;;;4.87;1.30;;;13.10;99.90;;;;;;5108672;28;20403;-78
2022/10/16 07:34:49;;;;;;;5.90;1.63;;;13.10;99.90;;;;;;5107309;28;20412;-78
2022/10/16 07:37:14;;;;;;;5.47;1.35;;;13.20;99.90;;;;;;5093589;28;20408;-78
2022/10/16 07:39:40;;;;;;;7.53;1.60;;;13.20;99.90;;;;;;5107941;28;20430;-78
2022/10/16 07:42:05;;;;;;;5.03;1.23;;;13.20;99.90;;;;;;5108406;28;20482;-78
2022/10/16 07:44:31;;;;;;;4.68;1.20;;;13.30;99.90;;;;;;5107850;28;20407;-78
2022/10/16 07:46:57;;;;;;;5.37;1.23;;;13.30;99.90;;;;;;5103459;28;20449;-79
2022/10/16 07:49:23;;;;;;;5.60;1.30;;;13.30;99.90;;;;;;5092839;28;20413;-78
2022/10/16 07:51:48;;;;;;;4.03;1.10;;;13.30;99.90;;;;;;5101447;28;20478;-79
2022/10/16 07:54:14;;;;;;;4.53;1.30;;;13.40;99.90;;;;;;5094669;27;20394;-80
2022/10/16 07:56:39;;;;;;;5.20;1.58;;;13.40;99.90;;;;;;5091229;28;20961;-79
2022/10/16 07:59:05;;;;;;;5.50;1.20;;;13.50;99.90;;;;;;5086044;28;20474;-80
2022/10/16 08:01:31;;;;;;;4.03;0.93;;;13.50;99.90;;;;;;5090562;28;20430;-80
2022/10/16 08:03:56;;;;;;;6.47;1.33;;;13.50;99.90;;;;;;5092051;28;20410;-79
2022/10/16 08:06:22;;;;;;;5.23;1.10;;;13.60;99.90;;;;;;5087030;28;20402;-80
2022/10/16 08:08:48;;;;;;;6.90;1.33;;;13.60;99.90;;;;;;5087228;28;20409;-79
2022/10/16 08:11:14;;;;;;;4.35;1.20;;;13.60;99.90;;;;;;5097814;28;20967;-78
2022/10/16 08:13:41;;;;;;;6.22;1.23;;;13.70;99.90;;;;;;5104843;28;20483;-79
2022/10/16 08:16:08;;;;;;;5.18;1.30;;;13.70;99.90;;;;;;5106948;28;20507;-80
2022/10/16 08:18:38;;;;;;;5.32;1.75;;;13.70;99.90;;;;;;5109987;28;20449;-79
2022/10/16 08:21:05;;;;;;;7.70;1.55;;;13.80;99.90;;;;;;5111547;28;20719;-79
2022/10/16 08:23:32;;;;;;;5.50;1.20;;;13.80;99.90;;;;;;5112059;28;20404;-79
2022/10/16 08:26:04;;;;;;;3.70;1.02;;;13.90;99.90;;;;;;5112189;28;20761;-74
2022/10/16 08:28:29;;;;;;;6.00;1.30;;;13.90;99.90;;;;;;5112015;28;20419;-78
2022/10/16 08:30:56;;;;;;;3.00;1.15;;;13.90;99.90;;;;;;5111817;28;20396;-77
2022/10/16 08:33:22;;;;;;;4.03;1.15;;;13.80;99.90;;;;;;5109091;28;20781;-77
2022/10/16 08:35:54;;;;;;;4.23;1.20;;;13.90;99.90;;;;;;5086601;28;20426;-77
2022/10/16 08:38:20;;;;;;;4.20;1.30;;;14.00;99.90;;;;;;5104271;28;20404;-77
2022/10/16 08:40:46;;;;;;;5.50;1.25;;;14.20;99.90;;;;;;5099683;28;20479;-77
2022/10/16 08:43:15;;;;;;;4.38;1.10;;;14.30;99.90;;;;;;5110546;28;20404;-77
2022/10/16 08:46:02;;;;;;;5.53;0.93;;;14.30;99.90;;;;;;5110577;28;21456;-78
2022/10/16 08:48:49;;;;;;;3.53;1.08;;;14.40;99.90;;;;;;5106157;28;20442;-77
2022/10/16 08:51:20;;;;;;;4.35;0.82;;;14.50;99.90;;;;;;5105702;28;20465;-77
2022/10/16 08:53:56;;;;;;;4.10;0.90;;;14.50;99.90;;;;;;5110547;28;20400;-77
2022/10/16 08:56:23;;;;;;;4.93;0.88;;;14.70;99.90;;;;;;5109585;28;20432;-77
2022/10/16 08:58:49;;;;;;;5.03;0.90;;;15.10;99.90;;;;;;5111272;28;20395;-77
2022/10/16 09:01:18;;;;;;;5.47;0.80;;;16.10;99.90;;;;;;5109794;28;20396;-77
2022/10/16 09:04:05;;;;;;;4.47;0.70;;;17.10;99.90;;;;;;5111046;28;20401;-77
2022/10/16 09:06:44;;;;;;;4.85;0.70;;;18.00;99.90;;;;;;5098342;28;20495;-77
2022/10/16 09:09:28;;;;;;;4.93;0.60;;;18.70;99.90;;;;;;5109205;28;20430;-77
2022/10/16 09:12:13;;;;;;;3.80;0.70;;;18.70;99.90;;;;;;5110953;28;20485;-77
2022/10/16 09:14:58;;;;;;;3.20;0.67;;;18.10;99.90;;;;;;5090071;28;20923;-77
2022/10/16 09:17:29;;;;;;;4.95;0.90;;;17.60;99.90;;;;;;5106242;28;20762;-77
2022/10/16 09:20:22;;;;;;;3.53;0.80;;;17.30;99.90;;;;;;5109646;28;20474;-77
2022/10/16 09:22:48;;;;;;;4.00;0.60;;;17.00;99.90;;;;;;5097094;28;20823;-77
2022/10/16 09:25:16;;;;;;;5.63;1.23;;;16.70;99.90;;;;;;5108838;28;20439;-77
2022/10/16 09:27:46;;;;;;;4.60;0.80;;;16.40;99.90;;;;;;5098771;28;20483;-77
2022/10/16 09:30:15;;;;;;;8.68;1.10;;;16.30;99.90;;;;;;5108120;28;20475;-77
2022/10/16 09:32:42;;;;;;;5.10;1.00;;;16.10;99.90;;;;;;5110379;28;20396;-77
2022/10/16 09:35:16;;;;;;;5.75;0.77;;;16.30;99.90;;;;;;5108647;28;20424;-77
2022/10/16 09:37:44;;;;;;;7.47;1.10;;;17.20;99.90;;;;;;5108155;28;20449;-77
2022/10/16 09:40:24;;;;;;;4.93;0.82;;;18.10;99.90;;;;;;5091227;28;20929;-78
2022/10/16 09:42:52;;;;;;;4.53;0.63;;;18.40;99.90;;;;;;5109586;27;20397;-78
2022/10/16 09:45:23;;;;;;;4.88;0.90;;;18.40;99.90;;;;;;5103776;28;20798;-77
2022/10/16 09:47:49;;;;;;;4.85;0.70;;;18.30;99.90;;;;;;5108807;28;20424;-77
2022/10/16 09:50:26;;;;;;;4.90;1.17;;;18.50;99.90;;;;;;5108473;28;20802;-78
2022/10/16 09:53:12;;;;;;;3.83;0.60;;;18.50;99.90;;;;;;5096143;28;20402;-77
2022/10/16 09:55:52;;;;;;;4.05;0.75;;;18.50;99.90;;;;;;5107162;28;20527;-75
2022/10/16 09:58:18;;;;;;;4.35;0.75;;;18.80;99.90;;;;;;5108619;28;20426;-76
2022/10/16 10:00:51;;;;;;;7.35;1.10;;;19.30;99.90;;;;;;5109384;28;20408;-75
2022/10/16 10:03:40;;;;;;;5.93;0.75;;;19.50;99.90;;;;;;5095299;28;20396;-75
2022/10/16 10:06:38;;;;;;;4.50;0.70;;;19.70;99.90;;;;;;5108601;27;20439;-76
2022/10/16 10:09:15;;;;;;;7.20;1.00;;;20.20;99.90;;;;;;5100328;28;20502;-76
2022/10/16 10:12:02;;;;;;;6.28;0.95;;;20.30;99.90;;;;;;5090429;28;20440;-76
2022/10/16 10:14:36;;;;;;;6.75;0.90;;;20.30;99.90;;;;;;5090219;28;20415;-70
2022/10/16 10:17:05;;;;;;;7.37;1.07;;;20.60;99.90;;;;;;5107252;28;20453;-73
2022/10/16 10:19:52;;;;;;;8.65;1.40;;;20.80;99.90;;;;;;5104411;28;20454;-75
2022/10/16 10:22:32;;;;;;;6.18;1.00;;;20.50;99.90;;;;;;5104636;28;20489;-75
2022/10/16 10:25:11;;;;;;;6.97;1.00;;;20.40;99.90;;;;;;5106948;28;21208;-77
2022/10/16 10:27:50;;;;;;;6.53;0.93;;;20.40;99.90;;;;;;5102963;28;20778;-77
2022/10/16 10:30:22;;;;;;;7.03;0.93;;;20.30;99.90;;;;;;5102165;28;20409;-77
2022/10/16 10:33:01;;;;;;;9.27;1.67;;;20.60;99.90;;;;;;5097050;28;20400;-77
2022/10/16 10:35:33;;;;;;;9.77;1.57;;;21.00;99.90;;;;;;5091459;28;20431;-78
2022/10/16 10:38:09;;;;;;;10.17;1.20;;;20.80;99.90;;;;;;5070814;28;20911;-78
2022/10/16 10:40:40;;;;;;;8.90;1.50;;;20.40;99.90;;;;;;5094153;28;20409;-77
2022/10/16 10:43:19;;;;;;;9.03;1.30;;;20.20;99.90;;;;;;5106712;28;20404;-77
2022/10/16 10:45:48;;;;;;;8.63;1.43;;;20.20;99.90;;;;;;5097485;28;20418;-77
2022/10/16 10:48:45;;;;;;;7.47;1.17;;;20.30;99.90;;;;;;5103926;28;20453;-77
2022/10/16 10:51:34;;;;;;;8.18;1.25;;;20.40;99.90;;;;;;5102942;27;20922;-77
2022/10/16 10:54:11;;;;;;;9.13;1.42;;;20.70;99.90;;;;;;5089650;28;20418;-77
2022/10/16 10:56:39;;;;;;;9.80;1.33;;;20.90;99.90;;;;;;5091548;28;20959;-77
2022/10/16 10:59:39;;;;;;;8.13;1.40;;;21.60;99.90;;;;;;5094210;28;20418;-78
2022/10/16 11:02:04;;;;;;;7.97;1.60;;;22.60;99.90;;;;;;5097193;28;20408;-77
2022/10/16 11:05:08;;;;;;;7.33;1.00;;;23.40;99.90;;;;;;5106010;28;20412;-78
2022/10/16 11:07:41;;;;;;;10.38;1.60;;;22.90;99.90;;;;;;5097920;28;20416;-77
2022/10/16 11:10:16;;;;;;;9.18;1.38;;;22.80;99.90;;;;;;5087619;28;20413;-77
2022/10/16 11:12:52;;;;;;;10.60;1.70;;;22.70;99.90;;;;;;5097469;27;21269;-78
2022/10/16 11:15:24;;;;;;;10.17;1.40;;;23.00;99.50;;;;;;5086238;28;20451;-78
2022/10/16 11:18:13;;;;;;;8.27;1.23;;;22.80;99.40;;;;;;5089607;28;20506;-77
2022/10/16 11:20:59;;;;;;;6.90;0.85;;;22.80;99.30;;;;;;5104963;28;20412;-78
2022/10/16 11:23:28;;;;;;;7.40;1.20;;;23.10;97.10;;;;;;5104102;28;20798;-77
2022/10/16 11:25:59;;;;;;;5.45;0.95;;;23.20;95.50;;;;;;5103907;28;20503;-78
2022/10/16 11:28:39;;;;;;;8.38;1.17;;;23.40;96.10;;;;;;5095757;28;20437;-79
2022/10/16 11:31:08;;;;;;;7.15;1.20;;;23.80;95.70;;;;;;5090328;28;20430;-77
2022/10/16 11:33:53;;;;;;;5.93;1.00;;;24.10;93.40;;;;;;5085238;28;20436;-78
2022/10/16 11:36:37;;;;;;;6.57;1.20;;;24.30;94.60;;;;;;5100174;28;20435;-78
2022/10/16 11:39:27;;;;;;;7.10;0.98;;;24.70;92.50;;;;;;5096692;28;20408;-78
2022/10/16 11:41:59;;;;;;;6.90;1.20;;;24.90;92.70;;;;;;5106989;28;20457;-78
2022/10/16 11:44:42;;;;;;;7.13;1.17;;;25.00;92.00;;;;;;5100003;28;20422;-78
2022/10/16 11:47:30;;;;;;;10.65;1.23;;;24.90;91.90;;;;;;5106926;28;20408;-77
2022/10/16 11:50:01;;;;;;;6.88;1.30;;;25.10;92.30;;;;;;5107214;28;20408;-78
2022/10/16 11:52:38;;;;;;;8.85;1.90;;;25.40;92.20;;;;;;5093131;28;20517;-77
2022/10/16 11:55:20;;;;;;;8.82;1.40;;;25.30;94.50;;;;;;5100290;28;20929;-78
2022/10/16 11:57:57;;;;;;;7.47;1.60;;;25.10;96.00;;;;;;5111932;27;20400;-77
2022/10/16 12:00:28;;;;;;;7.70;1.40;;;25.10;95.00;;;;;;5099386;28;20409;-78
2022/10/16 12:03:20;;;;;;;9.93;1.50;;;24.60;92.30;;;;;;5109356;28;20909;-78
2022/10/16 12:05:45;;;;;;;7.13;1.15;;;24.60;94.00;;;;;;5110649;28;20457;-78
2022/10/16 12:08:14;;;;;;;10.37;1.50;;;24.60;93.10;;;;;;5108003;28;20420;-78
2022/10/16 12:10:46;;;;;;;6.77;1.00;;;24.90;93.00;;;;;;5100041;28;20424;-78
2022/10/16 12:13:35;;;;;;;9.32;1.50;;;25.00;91.20;;;;;;5109469;28;20470;-78
2022/10/16 12:16:04;;;;;;;8.75;1.30;;;25.20;91.90;;;;;;5110664;28;20428;-78
2022/10/16 12:18:30;;;;;;;5.90;1.08;;;24.90;88.20;;;;;;5112128;28;20392;-78
2022/10/16 12:21:05;;;;;;;7.80;1.40;;;24.20;89.60;;;;;;5110798;28;20465;-78
2022/10/16 12:23:33;;;;;;;7.93;1.50;;;24.30;90.40;;;;;;5108134;28;20428;-78
2022/10/16 12:26:02;;;;;;;7.28;1.30;;;24.40;85.40;;;;;;5092813;28;20472;-78
2022/10/16 12:28:29;;;;;;;9.02;1.35;;;23.90;89.40;;;;;;5110196;28;20392;-74
2022/10/16 12:31:05;;;;;;;9.98;1.55;;;23.50;90.10;;;;;;5102763;28;20516;-76
2022/10/16 12:33:33;;;;;;;9.95;1.48;;;22.80;90.80;;;;;;5105289;28;20469;-77
2022/10/16 12:36:02;;;;;;;8.10;1.33;;;22.00;90.30;;;;;;5109318;28;20491;-77
2022/10/16 12:38:46;;;;;;;8.47;1.50;;;21.30;91.90;;;;;;5108521;28;20424;-77
2022/10/16 12:41:14;;;;;;;8.68;1.42;;;21.00;92.40;;;;;;5111554;28;20443;-77
2022/10/16 12:43:42;;;;;;;7.47;0.98;;;20.90;92.40;;;;;;5110226;28;20453;-77
2022/10/16 12:46:13;;;;;;;8.97;1.07;;;21.50;91.40;;;;;;5093521;28;20412;-76
2022/10/16 12:48:41;;;;;;;6.60;1.00;;;21.90;90.20;;;;;;5097840;28;20545;-77
2022/10/16 12:51:32;;;;;;;9.20;1.60;;;22.30;90.20;;;;;;5110130;28;20937;-77
2022/10/16 12:54:13;;;;;;;7.28;1.10;;;22.30;89.30;;;;;;5099083;28;20941;-77
2022/10/16 12:57:05;;;;;;;8.25;1.40;;;21.50;87.90;;;;;;5110204;28;20428;-77
2022/10/16 13:00:03;;;;;;;9.88;1.15;;;20.80;90.20;;;;;;5082291;28;20500;-77
2022/10/16 13:03:08;;;;;;;8.60;1.15;;;20.20;90.70;;;;;;5106192;28;20460;-80